<?xml version="1.0" encoding="UTF-8" ?>
<gpx version="1.1" xmlns:xsi="http://www.w3.org/2001/XMLSchema-instance" 
    xmlns="http://www.topografix.com/GPX/1/1" 
    xsi:schemaLocation="http://www.topografix.com/GPX/1/1 http://www.topografix.com/GPX/1/1/gpx.xsd" 
    creator="Openrunner - https://www.openrunner.com" >	<trk>
						<name>Rando Découverte de Brignais-21064353</name>
						<trkseg>
					<trkpt lat="45.677790" lon="4.751890">
						<ele>208</ele>
						<time>2025-04-07T13:15:02Z</time>
					</trkpt>
					<trkpt lat="45.677840" lon="4.752010">
						<ele>208</ele>
						<time>2025-04-07T13:15:15Z</time>
					</trkpt>
					<trkpt lat="45.677900" lon="4.751960">
						<ele>208</ele>
						<time>2025-04-07T13:15:24Z</time>
					</trkpt>
					<trkpt lat="45.677910" lon="4.752000">
						<ele>208</ele>
						<time>2025-04-07T13:15:28Z</time>
					</trkpt>
					<trkpt lat="45.678030" lon="4.752260">
						<ele>208</ele>
						<time>2025-04-07T13:15:57Z</time>
					</trkpt>
					<trkpt lat="45.678310" lon="4.752860">
						<ele>208</ele>
						<time>2025-04-07T13:17:05Z</time>
					</trkpt>
					<trkpt lat="45.678440" lon="4.753120">
						<ele>209</ele>
						<time>2025-04-07T13:17:34Z</time>
					</trkpt>
					<trkpt lat="45.678500" lon="4.753200">
						<ele>209</ele>
						<time>2025-04-07T13:17:45Z</time>
					</trkpt>
					<trkpt lat="45.678530" lon="4.753230">
						<ele>209</ele>
						<time>2025-04-07T13:17:50Z</time>
					</trkpt>
					<trkpt lat="45.678570" lon="4.753220">
						<ele>209</ele>
						<time>2025-04-07T13:17:56Z</time>
					</trkpt>
					<trkpt lat="45.678610" lon="4.753250">
						<ele>209</ele>
						<time>2025-04-07T13:18:02Z</time>
					</trkpt>
					<trkpt lat="45.678830" lon="4.753100">
						<ele>209</ele>
						<time>2025-04-07T13:18:34Z</time>
					</trkpt>
					<trkpt lat="45.678880" lon="4.753160">
						<ele>209</ele>
						<time>2025-04-07T13:18:43Z</time>
					</trkpt>
					<trkpt lat="45.678940" lon="4.753190">
						<ele>210</ele>
						<time>2025-04-07T13:18:51Z</time>
					</trkpt>
					<trkpt lat="45.679480" lon="4.753080">
						<ele>211</ele>
						<time>2025-04-07T13:20:04Z</time>
					</trkpt>
					<trkpt lat="45.679840" lon="4.753020">
						<ele>213</ele>
						<time>2025-04-07T13:20:53Z</time>
					</trkpt>
					<trkpt lat="45.681360" lon="4.752730">
						<ele>218</ele>
						<time>2025-04-07T13:24:17Z</time>
					</trkpt>
					<trkpt lat="45.682540" lon="4.752510">
						<ele>226</ele>
						<time>2025-04-07T13:26:56Z</time>
					</trkpt>
					<trkpt lat="45.682580" lon="4.752490">
						<ele>226</ele>
						<time>2025-04-07T13:27:02Z</time>
					</trkpt>
					<trkpt lat="45.682620" lon="4.752550">
						<ele>226</ele>
						<time>2025-04-07T13:27:09Z</time>
					</trkpt>
					<trkpt lat="45.682710" lon="4.752560">
						<ele>226</ele>
						<time>2025-04-07T13:27:21Z</time>
					</trkpt>
					<trkpt lat="45.682730" lon="4.752600">
						<ele>226</ele>
						<time>2025-04-07T13:27:26Z</time>
					</trkpt>
					<trkpt lat="45.682710" lon="4.752560">
						<ele>226</ele>
						<time>2025-04-07T13:27:31Z</time>
					</trkpt>
					<trkpt lat="45.682870" lon="4.752590">
						<ele>225</ele>
						<time>2025-04-07T13:27:52Z</time>
					</trkpt>
					<trkpt lat="45.683270" lon="4.752640">
						<ele>225</ele>
						<time>2025-04-07T13:28:46Z</time>
					</trkpt>
					<trkpt lat="45.683590" lon="4.752580">
						<ele>225</ele>
						<time>2025-04-07T13:29:29Z</time>
					</trkpt>
					<trkpt lat="45.684220" lon="4.752310">
						<ele>225</ele>
						<time>2025-04-07T13:30:57Z</time>
					</trkpt>
					<trkpt lat="45.684390" lon="4.752260">
						<ele>226</ele>
						<time>2025-04-07T13:31:20Z</time>
					</trkpt>
					<trkpt lat="45.684480" lon="4.752250">
						<ele>227</ele>
						<time>2025-04-07T13:31:32Z</time>
					</trkpt>
					<trkpt lat="45.684660" lon="4.752240">
						<ele>227</ele>
						<time>2025-04-07T13:31:56Z</time>
					</trkpt>
					<trkpt lat="45.685000" lon="4.752230">
						<ele>229</ele>
						<time>2025-04-07T13:32:41Z</time>
					</trkpt>
					<trkpt lat="45.685200" lon="4.752210">
						<ele>230</ele>
						<time>2025-04-07T13:33:08Z</time>
					</trkpt>
					<trkpt lat="45.685580" lon="4.752230">
						<ele>231</ele>
						<time>2025-04-07T13:33:59Z</time>
					</trkpt>
					<trkpt lat="45.686030" lon="4.752300">
						<ele>234</ele>
						<time>2025-04-07T13:34:59Z</time>
					</trkpt>
					<trkpt lat="45.686090" lon="4.752340">
						<ele>234</ele>
						<time>2025-04-07T13:35:08Z</time>
					</trkpt>
					<trkpt lat="45.686580" lon="4.752650">
						<ele>240</ele>
						<time>2025-04-07T13:36:19Z</time>
					</trkpt>
					<trkpt lat="45.686770" lon="4.752810">
						<ele>242</ele>
						<time>2025-04-07T13:36:49Z</time>
					</trkpt>
					<trkpt lat="45.687180" lon="4.752690">
						<ele>246</ele>
						<time>2025-04-07T13:37:45Z</time>
					</trkpt>
					<trkpt lat="45.688090" lon="4.752980">
						<ele>257</ele>
						<time>2025-04-07T13:39:49Z</time>
					</trkpt>
					<trkpt lat="45.688210" lon="4.752970">
						<ele>258</ele>
						<time>2025-04-07T13:40:05Z</time>
					</trkpt>
					<trkpt lat="45.688770" lon="4.752920">
						<ele>264</ele>
						<time>2025-04-07T13:41:20Z</time>
					</trkpt>
					<trkpt lat="45.689710" lon="4.753040">
						<ele>268</ele>
						<time>2025-04-07T13:43:26Z</time>
					</trkpt>
					<trkpt lat="45.690530" lon="4.753100">
						<ele>269</ele>
						<time>2025-04-07T13:45:15Z</time>
					</trkpt>
					<trkpt lat="45.690660" lon="4.753110">
						<ele>269</ele>
						<time>2025-04-07T13:45:33Z</time>
					</trkpt>
					<trkpt lat="45.692770" lon="4.753460">
						<ele>270</ele>
						<time>2025-04-07T13:50:16Z</time>
					</trkpt>
					<trkpt lat="45.693210" lon="4.753680">
						<ele>270</ele>
						<time>2025-04-07T13:51:18Z</time>
					</trkpt>
					<trkpt lat="45.693490" lon="4.753780">
						<ele>270</ele>
						<time>2025-04-07T13:51:57Z</time>
					</trkpt>
					<trkpt lat="45.693520" lon="4.753830">
						<ele>270</ele>
						<time>2025-04-07T13:52:03Z</time>
					</trkpt>
					<trkpt lat="45.693550" lon="4.753890">
						<ele>270</ele>
						<time>2025-04-07T13:52:10Z</time>
					</trkpt>
					<trkpt lat="45.693580" lon="4.753880">
						<ele>270</ele>
						<time>2025-04-07T13:52:14Z</time>
					</trkpt>
					<trkpt lat="45.693550" lon="4.753890">
						<ele>270</ele>
						<time>2025-04-07T13:52:18Z</time>
					</trkpt>
					<trkpt lat="45.693520" lon="4.753830">
						<ele>270</ele>
						<time>2025-04-07T13:52:25Z</time>
					</trkpt>
					<trkpt lat="45.693580" lon="4.753790">
						<ele>270</ele>
						<time>2025-04-07T13:52:34Z</time>
					</trkpt>
					<trkpt lat="45.693690" lon="4.753730">
						<ele>271</ele>
						<time>2025-04-07T13:52:50Z</time>
					</trkpt>
					<trkpt lat="45.693930" lon="4.753620">
						<ele>272</ele>
						<time>2025-04-07T13:53:23Z</time>
					</trkpt>
					<trkpt lat="45.694390" lon="4.753500">
						<ele>274</ele>
						<time>2025-04-07T13:54:26Z</time>
					</trkpt>
					<trkpt lat="45.694490" lon="4.753470">
						<ele>274</ele>
						<time>2025-04-07T13:54:39Z</time>
					</trkpt>
					<trkpt lat="45.694590" lon="4.753430">
						<ele>275</ele>
						<time>2025-04-07T13:54:53Z</time>
					</trkpt>
					<trkpt lat="45.694730" lon="4.753320">
						<ele>276</ele>
						<time>2025-04-07T13:55:14Z</time>
					</trkpt>
					<trkpt lat="45.694750" lon="4.753320">
						<ele>276</ele>
						<time>2025-04-07T13:55:17Z</time>
					</trkpt>
					<trkpt lat="45.694770" lon="4.753320">
						<ele>276</ele>
						<time>2025-04-07T13:55:20Z</time>
					</trkpt>
					<trkpt lat="45.694790" lon="4.753370">
						<ele>276</ele>
						<time>2025-04-07T13:55:25Z</time>
					</trkpt>
					<trkpt lat="45.694810" lon="4.753390">
						<ele>276</ele>
						<time>2025-04-07T13:55:28Z</time>
					</trkpt>
					<trkpt lat="45.694840" lon="4.753440">
						<ele>276</ele>
						<time>2025-04-07T13:55:35Z</time>
					</trkpt>
					<trkpt lat="45.694900" lon="4.753470">
						<ele>276</ele>
						<time>2025-04-07T13:55:43Z</time>
					</trkpt>
					<trkpt lat="45.694940" lon="4.753470">
						<ele>276</ele>
						<time>2025-04-07T13:55:48Z</time>
					</trkpt>
					<trkpt lat="45.695260" lon="4.753490">
						<ele>277</ele>
						<time>2025-04-07T13:56:31Z</time>
					</trkpt>
					<trkpt lat="45.695820" lon="4.753590">
						<ele>277</ele>
						<time>2025-04-07T13:57:46Z</time>
					</trkpt>
					<trkpt lat="45.696280" lon="4.753650">
						<ele>277</ele>
						<time>2025-04-07T13:58:48Z</time>
					</trkpt>
					<trkpt lat="45.696760" lon="4.754080">
						<ele>277</ele>
						<time>2025-04-07T14:00:04Z</time>
					</trkpt>
					<trkpt lat="45.696850" lon="4.754130">
						<ele>277</ele>
						<time>2025-04-07T14:00:17Z</time>
					</trkpt>
					<trkpt lat="45.697380" lon="4.754140">
						<ele>278</ele>
						<time>2025-04-07T14:01:27Z</time>
					</trkpt>
					<trkpt lat="45.698000" lon="4.754230">
						<ele>278</ele>
						<time>2025-04-07T14:02:50Z</time>
					</trkpt>
					<trkpt lat="45.698440" lon="4.754320">
						<ele>277</ele>
						<time>2025-04-07T14:03:50Z</time>
					</trkpt>
					<trkpt lat="45.698460" lon="4.754320">
						<ele>277</ele>
						<time>2025-04-07T14:03:52Z</time>
					</trkpt>
					<trkpt lat="45.698480" lon="4.753900">
						<ele>278</ele>
						<time>2025-04-07T14:04:32Z</time>
					</trkpt>
					<trkpt lat="45.698480" lon="4.753250">
						<ele>279</ele>
						<time>2025-04-07T14:05:32Z</time>
					</trkpt>
					<trkpt lat="45.698510" lon="4.752950">
						<ele>280</ele>
						<time>2025-04-07T14:06:00Z</time>
					</trkpt>
					<trkpt lat="45.698730" lon="4.751450">
						<ele>285</ele>
						<time>2025-04-07T14:08:23Z</time>
					</trkpt>
					<trkpt lat="45.699000" lon="4.749610">
						<ele>294</ele>
						<time>2025-04-07T14:11:19Z</time>
					</trkpt>
					<trkpt lat="45.699000" lon="4.749500">
						<ele>294</ele>
						<time>2025-04-07T14:11:29Z</time>
					</trkpt>
					<trkpt lat="45.698990" lon="4.747620">
						<ele>304</ele>
						<time>2025-04-07T14:14:24Z</time>
					</trkpt>
					<trkpt lat="45.699070" lon="4.747280">
						<ele>305</ele>
						<time>2025-04-07T14:14:57Z</time>
					</trkpt>
					<trkpt lat="45.699030" lon="4.747210">
						<ele>305</ele>
						<time>2025-04-07T14:15:06Z</time>
					</trkpt>
					<trkpt lat="45.699020" lon="4.747180">
						<ele>305</ele>
						<time>2025-04-07T14:15:09Z</time>
					</trkpt>
					<trkpt lat="45.699530" lon="4.745850">
						<ele>307</ele>
						<time>2025-04-07T14:17:30Z</time>
					</trkpt>
					<trkpt lat="45.699590" lon="4.745690">
						<ele>307</ele>
						<time>2025-04-07T14:17:47Z</time>
					</trkpt>
					<trkpt lat="45.699930" lon="4.744730">
						<ele>309</ele>
						<time>2025-04-07T14:19:28Z</time>
					</trkpt>
					<trkpt lat="45.700210" lon="4.743910">
						<ele>312</ele>
						<time>2025-04-07T14:20:53Z</time>
					</trkpt>
					<trkpt lat="45.700320" lon="4.743540">
						<ele>313</ele>
						<time>2025-04-07T14:21:30Z</time>
					</trkpt>
					<trkpt lat="45.700530" lon="4.742630">
						<ele>316</ele>
						<time>2025-04-07T14:23:00Z</time>
					</trkpt>
					<trkpt lat="45.700670" lon="4.742080">
						<ele>317</ele>
						<time>2025-04-07T14:23:54Z</time>
					</trkpt>
					<trkpt lat="45.700980" lon="4.740880">
						<ele>320</ele>
						<time>2025-04-07T14:25:53Z</time>
					</trkpt>
					<trkpt lat="45.700980" lon="4.740850">
						<ele>320</ele>
						<time>2025-04-07T14:25:56Z</time>
					</trkpt>
					<trkpt lat="45.700990" lon="4.740820">
						<ele>320</ele>
						<time>2025-04-07T14:25:59Z</time>
					</trkpt>
					<trkpt lat="45.701280" lon="4.739950">
						<ele>323</ele>
						<time>2025-04-07T14:27:29Z</time>
					</trkpt>
					<trkpt lat="45.701570" lon="4.739100">
						<ele>323</ele>
						<time>2025-04-07T14:28:57Z</time>
					</trkpt>
					<trkpt lat="45.701840" lon="4.738620">
						<ele>320</ele>
						<time>2025-04-07T14:29:55Z</time>
					</trkpt>
					<trkpt lat="45.701860" lon="4.738600">
						<ele>320</ele>
						<time>2025-04-07T14:29:58Z</time>
					</trkpt>
					<trkpt lat="45.701970" lon="4.738500">
						<ele>319</ele>
						<time>2025-04-07T14:30:15Z</time>
					</trkpt>
					<trkpt lat="45.702350" lon="4.738270">
						<ele>318</ele>
						<time>2025-04-07T14:31:10Z</time>
					</trkpt>
					<trkpt lat="45.702370" lon="4.738310">
						<ele>318</ele>
						<time>2025-04-07T14:31:15Z</time>
					</trkpt>
					<trkpt lat="45.702350" lon="4.738270">
						<ele>318</ele>
						<time>2025-04-07T14:31:20Z</time>
					</trkpt>
					<trkpt lat="45.702330" lon="4.738060">
						<ele>317</ele>
						<time>2025-04-07T14:31:39Z</time>
					</trkpt>
					<trkpt lat="45.702440" lon="4.737350">
						<ele>314</ele>
						<time>2025-04-07T14:32:47Z</time>
					</trkpt>
					<trkpt lat="45.702460" lon="4.736500">
						<ele>311</ele>
						<time>2025-04-07T14:34:06Z</time>
					</trkpt>
					<trkpt lat="45.702540" lon="4.735960">
						<ele>309</ele>
						<time>2025-04-07T14:34:58Z</time>
					</trkpt>
					<trkpt lat="45.702670" lon="4.735520">
						<ele>307</ele>
						<time>2025-04-07T14:35:42Z</time>
					</trkpt>
					<trkpt lat="45.702670" lon="4.735500">
						<ele>307</ele>
						<time>2025-04-07T14:35:44Z</time>
					</trkpt>
					<trkpt lat="45.701620" lon="4.734400">
						<ele>306</ele>
						<time>2025-04-07T14:38:38Z</time>
					</trkpt>
					<trkpt lat="45.701430" lon="4.734180">
						<ele>305</ele>
						<time>2025-04-07T14:39:10Z</time>
					</trkpt>
					<trkpt lat="45.701190" lon="4.733800">
						<ele>304</ele>
						<time>2025-04-07T14:39:58Z</time>
					</trkpt>
					<trkpt lat="45.700750" lon="4.733240">
						<ele>303</ele>
						<time>2025-04-07T14:41:17Z</time>
					</trkpt>
					<trkpt lat="45.700680" lon="4.733140">
						<ele>303</ele>
						<time>2025-04-07T14:41:30Z</time>
					</trkpt>
					<trkpt lat="45.700580" lon="4.732990">
						<ele>303</ele>
						<time>2025-04-07T14:41:49Z</time>
					</trkpt>
					<trkpt lat="45.699760" lon="4.732150">
						<ele>303</ele>
						<time>2025-04-07T14:44:04Z</time>
					</trkpt>
					<trkpt lat="45.699560" lon="4.731980">
						<ele>303</ele>
						<time>2025-04-07T14:44:35Z</time>
					</trkpt>
					<trkpt lat="45.699040" lon="4.731740">
						<ele>302</ele>
						<time>2025-04-07T14:45:48Z</time>
					</trkpt>
					<trkpt lat="45.698750" lon="4.731640">
						<ele>301</ele>
						<time>2025-04-07T14:46:28Z</time>
					</trkpt>
					<trkpt lat="45.698620" lon="4.731580">
						<ele>301</ele>
						<time>2025-04-07T14:46:46Z</time>
					</trkpt>
					<trkpt lat="45.698530" lon="4.731530">
						<ele>300</ele>
						<time>2025-04-07T14:46:59Z</time>
					</trkpt>
					<trkpt lat="45.698270" lon="4.731340">
						<ele>300</ele>
						<time>2025-04-07T14:47:38Z</time>
					</trkpt>
					<trkpt lat="45.698070" lon="4.731220">
						<ele>299</ele>
						<time>2025-04-07T14:48:07Z</time>
					</trkpt>
					<trkpt lat="45.698020" lon="4.731190">
						<ele>299</ele>
						<time>2025-04-07T14:48:14Z</time>
					</trkpt>
					<trkpt lat="45.697910" lon="4.731150">
						<ele>298</ele>
						<time>2025-04-07T14:48:29Z</time>
					</trkpt>
					<trkpt lat="45.697580" lon="4.731120">
						<ele>296</ele>
						<time>2025-04-07T14:49:13Z</time>
					</trkpt>
					<trkpt lat="45.697360" lon="4.731080">
						<ele>295</ele>
						<time>2025-04-07T14:49:43Z</time>
					</trkpt>
					<trkpt lat="45.697020" lon="4.730970">
						<ele>294</ele>
						<time>2025-04-07T14:50:29Z</time>
					</trkpt>
					<trkpt lat="45.696700" lon="4.730840">
						<ele>293</ele>
						<time>2025-04-07T14:51:14Z</time>
					</trkpt>
					<trkpt lat="45.696220" lon="4.730600">
						<ele>293</ele>
						<time>2025-04-07T14:52:21Z</time>
					</trkpt>
					<trkpt lat="45.695690" lon="4.730230">
						<ele>292</ele>
						<time>2025-04-07T14:53:40Z</time>
					</trkpt>
					<trkpt lat="45.694940" lon="4.729750">
						<ele>290</ele>
						<time>2025-04-07T14:55:30Z</time>
					</trkpt>
					<trkpt lat="45.694610" lon="4.729510">
						<ele>286</ele>
						<time>2025-04-07T14:56:19Z</time>
					</trkpt>
					<trkpt lat="45.694490" lon="4.729450">
						<ele>285</ele>
						<time>2025-04-07T14:56:36Z</time>
					</trkpt>
					<trkpt lat="45.694480" lon="4.729450">
						<ele>285</ele>
						<time>2025-04-07T14:56:37Z</time>
					</trkpt>
					<trkpt lat="45.694080" lon="4.729360">
						<ele>280</ele>
						<time>2025-04-07T14:57:31Z</time>
					</trkpt>
					<trkpt lat="45.693230" lon="4.729160">
						<ele>273</ele>
						<time>2025-04-07T14:59:26Z</time>
					</trkpt>
					<trkpt lat="45.693230" lon="4.729110">
						<ele>272</ele>
						<time>2025-04-07T14:59:31Z</time>
					</trkpt>
					<trkpt lat="45.693210" lon="4.728980">
						<ele>270</ele>
						<time>2025-04-07T14:59:43Z</time>
					</trkpt>
					<trkpt lat="45.693230" lon="4.728880">
						<ele>268</ele>
						<time>2025-04-07T14:59:53Z</time>
					</trkpt>
					<trkpt lat="45.693240" lon="4.728860">
						<ele>268</ele>
						<time>2025-04-07T14:59:55Z</time>
					</trkpt>
					<trkpt lat="45.693270" lon="4.728800">
						<ele>267</ele>
						<time>2025-04-07T15:00:02Z</time>
					</trkpt>
					<trkpt lat="45.693350" lon="4.728710">
						<ele>267</ele>
						<time>2025-04-07T15:00:16Z</time>
					</trkpt>
					<trkpt lat="45.693550" lon="4.728600">
						<ele>267</ele>
						<time>2025-04-07T15:00:44Z</time>
					</trkpt>
					<trkpt lat="45.693720" lon="4.728490">
						<ele>267</ele>
						<time>2025-04-07T15:01:09Z</time>
					</trkpt>
					<trkpt lat="45.693940" lon="4.728390">
						<ele>269</ele>
						<time>2025-04-07T15:01:40Z</time>
					</trkpt>
					<trkpt lat="45.693970" lon="4.728350">
						<ele>269</ele>
						<time>2025-04-07T15:01:46Z</time>
					</trkpt>
					<trkpt lat="45.694000" lon="4.728320">
						<ele>269</ele>
						<time>2025-04-07T15:01:51Z</time>
					</trkpt>
					<trkpt lat="45.694040" lon="4.728190">
						<ele>266</ele>
						<time>2025-04-07T15:02:04Z</time>
					</trkpt>
					<trkpt lat="45.694070" lon="4.728050">
						<ele>264</ele>
						<time>2025-04-07T15:02:17Z</time>
					</trkpt>
					<trkpt lat="45.694070" lon="4.727810">
						<ele>259</ele>
						<time>2025-04-07T15:02:40Z</time>
					</trkpt>
					<trkpt lat="45.694100" lon="4.727660">
						<ele>256</ele>
						<time>2025-04-07T15:02:54Z</time>
					</trkpt>
					<trkpt lat="45.694150" lon="4.727440">
						<ele>253</ele>
						<time>2025-04-07T15:03:16Z</time>
					</trkpt>
					<trkpt lat="45.694170" lon="4.727060">
						<ele>247</ele>
						<time>2025-04-07T15:03:51Z</time>
					</trkpt>
					<trkpt lat="45.694350" lon="4.726390">
						<ele>243</ele>
						<time>2025-04-07T15:04:58Z</time>
					</trkpt>
					<trkpt lat="45.694330" lon="4.726220">
						<ele>240</ele>
						<time>2025-04-07T15:05:14Z</time>
					</trkpt>
					<trkpt lat="45.694280" lon="4.726130">
						<ele>238</ele>
						<time>2025-04-07T15:05:25Z</time>
					</trkpt>
					<trkpt lat="45.694260" lon="4.726100">
						<ele>237</ele>
						<time>2025-04-07T15:05:29Z</time>
					</trkpt>
					<trkpt lat="45.694070" lon="4.726130">
						<ele>236</ele>
						<time>2025-04-07T15:05:55Z</time>
					</trkpt>
					<trkpt lat="45.694050" lon="4.726030">
						<ele>235</ele>
						<time>2025-04-07T15:06:04Z</time>
					</trkpt>
					<trkpt lat="45.694070" lon="4.725940">
						<ele>234</ele>
						<time>2025-04-07T15:06:13Z</time>
					</trkpt>
					<trkpt lat="45.694180" lon="4.725530">
						<ele>233</ele>
						<time>2025-04-07T15:06:54Z</time>
					</trkpt>
					<trkpt lat="45.694230" lon="4.725340">
						<ele>233</ele>
						<time>2025-04-07T15:07:13Z</time>
					</trkpt>
					<trkpt lat="45.694230" lon="4.725120">
						<ele>233</ele>
						<time>2025-04-07T15:07:33Z</time>
					</trkpt>
					<trkpt lat="45.694180" lon="4.724720">
						<ele>235</ele>
						<time>2025-04-07T15:08:11Z</time>
					</trkpt>
					<trkpt lat="45.694180" lon="4.724650">
						<ele>235</ele>
						<time>2025-04-07T15:08:18Z</time>
					</trkpt>
					<trkpt lat="45.694130" lon="4.724450">
						<ele>237</ele>
						<time>2025-04-07T15:08:38Z</time>
					</trkpt>
					<trkpt lat="45.694090" lon="4.724250">
						<ele>238</ele>
						<time>2025-04-07T15:08:57Z</time>
					</trkpt>
					<trkpt lat="45.694070" lon="4.724120">
						<ele>240</ele>
						<time>2025-04-07T15:09:09Z</time>
					</trkpt>
					<trkpt lat="45.694020" lon="4.723900">
						<ele>243</ele>
						<time>2025-04-07T15:09:31Z</time>
					</trkpt>
					<trkpt lat="45.694010" lon="4.723850">
						<ele>243</ele>
						<time>2025-04-07T15:09:36Z</time>
					</trkpt>
					<trkpt lat="45.694130" lon="4.723880">
						<ele>242</ele>
						<time>2025-04-07T15:09:52Z</time>
					</trkpt>
					<trkpt lat="45.694310" lon="4.724000">
						<ele>240</ele>
						<time>2025-04-07T15:10:19Z</time>
					</trkpt>
					<trkpt lat="45.694600" lon="4.724220">
						<ele>238</ele>
						<time>2025-04-07T15:11:02Z</time>
					</trkpt>
					<trkpt lat="45.694700" lon="4.724240">
						<ele>238</ele>
						<time>2025-04-07T15:11:16Z</time>
					</trkpt>
					<trkpt lat="45.694710" lon="4.724230">
						<ele>238</ele>
						<time>2025-04-07T15:11:17Z</time>
					</trkpt>
					<trkpt lat="45.694740" lon="4.724210">
						<ele>238</ele>
						<time>2025-04-07T15:11:22Z</time>
					</trkpt>
					<trkpt lat="45.694730" lon="4.724090">
						<ele>239</ele>
						<time>2025-04-07T15:11:33Z</time>
					</trkpt>
					<trkpt lat="45.694560" lon="4.723870">
						<ele>241</ele>
						<time>2025-04-07T15:12:04Z</time>
					</trkpt>
					<trkpt lat="45.694450" lon="4.723730">
						<ele>243</ele>
						<time>2025-04-07T15:12:23Z</time>
					</trkpt>
					<trkpt lat="45.694330" lon="4.723470">
						<ele>247</ele>
						<time>2025-04-07T15:12:52Z</time>
					</trkpt>
					<trkpt lat="45.694310" lon="4.723380">
						<ele>248</ele>
						<time>2025-04-07T15:13:01Z</time>
					</trkpt>
					<trkpt lat="45.694320" lon="4.723370">
						<ele>248</ele>
						<time>2025-04-07T15:13:03Z</time>
					</trkpt>
					<trkpt lat="45.694420" lon="4.723160">
						<ele>250</ele>
						<time>2025-04-07T15:13:27Z</time>
					</trkpt>
					<trkpt lat="45.694440" lon="4.722970">
						<ele>252</ele>
						<time>2025-04-07T15:13:44Z</time>
					</trkpt>
					<trkpt lat="45.694410" lon="4.722170">
						<ele>260</ele>
						<time>2025-04-07T15:14:59Z</time>
					</trkpt>
					<trkpt lat="45.694330" lon="4.721600">
						<ele>266</ele>
						<time>2025-04-07T15:15:53Z</time>
					</trkpt>
					<trkpt lat="45.694330" lon="4.721510">
						<ele>267</ele>
						<time>2025-04-07T15:16:02Z</time>
					</trkpt>
					<trkpt lat="45.694350" lon="4.721230">
						<ele>270</ele>
						<time>2025-04-07T15:16:28Z</time>
					</trkpt>
					<trkpt lat="45.694300" lon="4.721010">
						<ele>274</ele>
						<time>2025-04-07T15:16:49Z</time>
					</trkpt>
					<trkpt lat="45.694370" lon="4.719750">
						<ele>282</ele>
						<time>2025-04-07T15:18:47Z</time>
					</trkpt>
					<trkpt lat="45.694340" lon="4.719540">
						<ele>284</ele>
						<time>2025-04-07T15:19:07Z</time>
					</trkpt>
					<trkpt lat="45.694340" lon="4.719470">
						<ele>284</ele>
						<time>2025-04-07T15:19:14Z</time>
					</trkpt>
					<trkpt lat="45.694240" lon="4.719220">
						<ele>286</ele>
						<time>2025-04-07T15:19:41Z</time>
					</trkpt>
					<trkpt lat="45.693660" lon="4.718370">
						<ele>288</ele>
						<time>2025-04-07T15:21:31Z</time>
					</trkpt>
					<trkpt lat="45.693540" lon="4.718190">
						<ele>289</ele>
						<time>2025-04-07T15:21:55Z</time>
					</trkpt>
					<trkpt lat="45.693190" lon="4.717700">
						<ele>292</ele>
						<time>2025-04-07T15:23:00Z</time>
					</trkpt>
					<trkpt lat="45.692470" lon="4.716560">
						<ele>295</ele>
						<time>2025-04-07T15:25:23Z</time>
					</trkpt>
					<trkpt lat="45.692380" lon="4.716390">
						<ele>295</ele>
						<time>2025-04-07T15:25:43Z</time>
					</trkpt>
					<trkpt lat="45.692370" lon="4.716370">
						<ele>295</ele>
						<time>2025-04-07T15:25:45Z</time>
					</trkpt>
					<trkpt lat="45.692330" lon="4.716230">
						<ele>295</ele>
						<time>2025-04-07T15:25:59Z</time>
					</trkpt>
					<trkpt lat="45.692200" lon="4.715970">
						<ele>296</ele>
						<time>2025-04-07T15:26:29Z</time>
					</trkpt>
					<trkpt lat="45.692140" lon="4.715860">
						<ele>296</ele>
						<time>2025-04-07T15:26:42Z</time>
					</trkpt>
					<trkpt lat="45.691970" lon="4.715700">
						<ele>297</ele>
						<time>2025-04-07T15:27:09Z</time>
					</trkpt>
					<trkpt lat="45.691840" lon="4.715600">
						<ele>298</ele>
						<time>2025-04-07T15:27:29Z</time>
					</trkpt>
					<trkpt lat="45.691600" lon="4.715500">
						<ele>298</ele>
						<time>2025-04-07T15:28:02Z</time>
					</trkpt>
					<trkpt lat="45.691330" lon="4.715450">
						<ele>298</ele>
						<time>2025-04-07T15:28:39Z</time>
					</trkpt>
					<trkpt lat="45.691190" lon="4.715410">
						<ele>298</ele>
						<time>2025-04-07T15:28:58Z</time>
					</trkpt>
					<trkpt lat="45.691050" lon="4.715350">
						<ele>298</ele>
						<time>2025-04-07T15:29:17Z</time>
					</trkpt>
					<trkpt lat="45.690490" lon="4.715040">
						<ele>299</ele>
						<time>2025-04-07T15:30:37Z</time>
					</trkpt>
					<trkpt lat="45.689730" lon="4.714500">
						<ele>301</ele>
						<time>2025-04-07T15:32:31Z</time>
					</trkpt>
					<trkpt lat="45.689470" lon="4.714270">
						<ele>302</ele>
						<time>2025-04-07T15:33:12Z</time>
					</trkpt>
					<trkpt lat="45.689460" lon="4.714270">
						<ele>302</ele>
						<time>2025-04-07T15:33:13Z</time>
					</trkpt>
					<trkpt lat="45.689470" lon="4.714270">
						<ele>302</ele>
						<time>2025-04-07T15:33:14Z</time>
					</trkpt>
					<trkpt lat="45.689450" lon="4.714600">
						<ele>299</ele>
						<time>2025-04-07T15:33:45Z</time>
					</trkpt>
					<trkpt lat="45.689450" lon="4.714830">
						<ele>297</ele>
						<time>2025-04-07T15:34:06Z</time>
					</trkpt>
					<trkpt lat="45.689390" lon="4.715720">
						<ele>288</ele>
						<time>2025-04-07T15:35:30Z</time>
					</trkpt>
					<trkpt lat="45.689420" lon="4.716210">
						<ele>282</ele>
						<time>2025-04-07T15:36:16Z</time>
					</trkpt>
					<trkpt lat="45.689310" lon="4.716390">
						<ele>279</ele>
						<time>2025-04-07T15:36:38Z</time>
					</trkpt>
					<trkpt lat="45.689120" lon="4.716480">
						<ele>277</ele>
						<time>2025-04-07T15:37:05Z</time>
					</trkpt>
					<trkpt lat="45.689030" lon="4.716530">
						<ele>275</ele>
						<time>2025-04-07T15:37:18Z</time>
					</trkpt>
					<trkpt lat="45.688740" lon="4.716640">
						<ele>269</ele>
						<time>2025-04-07T15:37:58Z</time>
					</trkpt>
					<trkpt lat="45.688700" lon="4.716600">
						<ele>269</ele>
						<time>2025-04-07T15:38:04Z</time>
					</trkpt>
					<trkpt lat="45.688680" lon="4.716320">
						<ele>273</ele>
						<time>2025-04-07T15:38:30Z</time>
					</trkpt>
					<trkpt lat="45.688600" lon="4.716130">
						<ele>274</ele>
						<time>2025-04-07T15:38:51Z</time>
					</trkpt>
					<trkpt lat="45.688250" lon="4.715900">
						<ele>272</ele>
						<time>2025-04-07T15:39:42Z</time>
					</trkpt>
					<trkpt lat="45.688100" lon="4.715890">
						<ele>271</ele>
						<time>2025-04-07T15:40:02Z</time>
					</trkpt>
					<trkpt lat="45.688060" lon="4.715890">
						<ele>271</ele>
						<time>2025-04-07T15:40:08Z</time>
					</trkpt>
					<trkpt lat="45.687980" lon="4.715960">
						<ele>270</ele>
						<time>2025-04-07T15:40:20Z</time>
					</trkpt>
					<trkpt lat="45.687960" lon="4.716070">
						<ele>269</ele>
						<time>2025-04-07T15:40:31Z</time>
					</trkpt>
					<trkpt lat="45.687950" lon="4.716110">
						<ele>269</ele>
						<time>2025-04-07T15:40:35Z</time>
					</trkpt>
					<trkpt lat="45.687940" lon="4.716140">
						<ele>268</ele>
						<time>2025-04-07T15:40:38Z</time>
					</trkpt>
					<trkpt lat="45.687910" lon="4.716210">
						<ele>268</ele>
						<time>2025-04-07T15:40:46Z</time>
					</trkpt>
					<trkpt lat="45.687860" lon="4.716340">
						<ele>268</ele>
						<time>2025-04-07T15:40:59Z</time>
					</trkpt>
					<trkpt lat="45.687750" lon="4.716420">
						<ele>268</ele>
						<time>2025-04-07T15:41:16Z</time>
					</trkpt>
					<trkpt lat="45.687620" lon="4.716630">
						<ele>269</ele>
						<time>2025-04-07T15:41:42Z</time>
					</trkpt>
					<trkpt lat="45.687470" lon="4.716780">
						<ele>271</ele>
						<time>2025-04-07T15:42:07Z</time>
					</trkpt>
					<trkpt lat="45.687270" lon="4.716980">
						<ele>275</ele>
						<time>2025-04-07T15:42:39Z</time>
					</trkpt>
					<trkpt lat="45.687060" lon="4.717060">
						<ele>277</ele>
						<time>2025-04-07T15:43:08Z</time>
					</trkpt>
					<trkpt lat="45.686880" lon="4.717250">
						<ele>281</ele>
						<time>2025-04-07T15:43:38Z</time>
					</trkpt>
					<trkpt lat="45.686520" lon="4.718190">
						<ele>292</ele>
						<time>2025-04-07T15:45:18Z</time>
					</trkpt>
					<trkpt lat="45.686510" lon="4.718330">
						<ele>293</ele>
						<time>2025-04-07T15:45:31Z</time>
					</trkpt>
					<trkpt lat="45.686520" lon="4.718400">
						<ele>293</ele>
						<time>2025-04-07T15:45:38Z</time>
					</trkpt>
					<trkpt lat="45.686560" lon="4.718470">
						<ele>294</ele>
						<time>2025-04-07T15:45:46Z</time>
					</trkpt>
					<trkpt lat="45.686580" lon="4.718440">
						<ele>293</ele>
						<time>2025-04-07T15:45:50Z</time>
					</trkpt>
					<trkpt lat="45.686560" lon="4.718470">
						<ele>294</ele>
						<time>2025-04-07T15:45:54Z</time>
					</trkpt>
					<trkpt lat="45.686420" lon="4.718910">
						<ele>297</ele>
						<time>2025-04-07T15:46:39Z</time>
					</trkpt>
					<trkpt lat="45.686110" lon="4.719840">
						<ele>301</ele>
						<time>2025-04-07T15:48:15Z</time>
					</trkpt>
					<trkpt lat="45.686080" lon="4.719920">
						<ele>301</ele>
						<time>2025-04-07T15:48:23Z</time>
					</trkpt>
					<trkpt lat="45.686060" lon="4.719940">
						<ele>301</ele>
						<time>2025-04-07T15:48:27Z</time>
					</trkpt>
					<trkpt lat="45.686010" lon="4.719960">
						<ele>302</ele>
						<time>2025-04-07T15:48:34Z</time>
					</trkpt>
					<trkpt lat="45.686000" lon="4.719970">
						<ele>302</ele>
						<time>2025-04-07T15:48:35Z</time>
					</trkpt>
					<trkpt lat="45.685650" lon="4.719770">
						<ele>305</ele>
						<time>2025-04-07T15:49:25Z</time>
					</trkpt>
					<trkpt lat="45.685640" lon="4.719740">
						<ele>305</ele>
						<time>2025-04-07T15:49:29Z</time>
					</trkpt>
					<trkpt lat="45.685480" lon="4.719400">
						<ele>306</ele>
						<time>2025-04-07T15:50:07Z</time>
					</trkpt>
					<trkpt lat="45.685290" lon="4.719080">
						<ele>307</ele>
						<time>2025-04-07T15:50:46Z</time>
					</trkpt>
					<trkpt lat="45.685160" lon="4.718900">
						<ele>307</ele>
						<time>2025-04-07T15:51:10Z</time>
					</trkpt>
					<trkpt lat="45.685010" lon="4.718720">
						<ele>308</ele>
						<time>2025-04-07T15:51:36Z</time>
					</trkpt>
					<trkpt lat="45.684490" lon="4.718170">
						<ele>308</ele>
						<time>2025-04-07T15:53:02Z</time>
					</trkpt>
					<trkpt lat="45.684420" lon="4.718090">
						<ele>308</ele>
						<time>2025-04-07T15:53:14Z</time>
					</trkpt>
					<trkpt lat="45.684300" lon="4.717940">
						<ele>308</ele>
						<time>2025-04-07T15:53:36Z</time>
					</trkpt>
					<trkpt lat="45.684230" lon="4.717820">
						<ele>307</ele>
						<time>2025-04-07T15:53:50Z</time>
					</trkpt>
					<trkpt lat="45.684010" lon="4.717380">
						<ele>305</ele>
						<time>2025-04-07T15:54:41Z</time>
					</trkpt>
					<trkpt lat="45.683880" lon="4.717140">
						<ele>304</ele>
						<time>2025-04-07T15:55:09Z</time>
					</trkpt>
					<trkpt lat="45.683580" lon="4.716640">
						<ele>304</ele>
						<time>2025-04-07T15:56:10Z</time>
					</trkpt>
					<trkpt lat="45.683250" lon="4.716150">
						<ele>306</ele>
						<time>2025-04-07T15:57:14Z</time>
					</trkpt>
					<trkpt lat="45.683250" lon="4.716420">
						<ele>307</ele>
						<time>2025-04-07T15:57:39Z</time>
					</trkpt>
					<trkpt lat="45.683280" lon="4.716640">
						<ele>308</ele>
						<time>2025-04-07T15:58:00Z</time>
					</trkpt>
					<trkpt lat="45.683240" lon="4.716860">
						<ele>309</ele>
						<time>2025-04-07T15:58:21Z</time>
					</trkpt>
					<trkpt lat="45.683170" lon="4.716930">
						<ele>310</ele>
						<time>2025-04-07T15:58:33Z</time>
					</trkpt>
					<trkpt lat="45.682980" lon="4.717030">
						<ele>312</ele>
						<time>2025-04-07T15:59:00Z</time>
					</trkpt>
					<trkpt lat="45.682830" lon="4.717200">
						<ele>313</ele>
						<time>2025-04-07T15:59:25Z</time>
					</trkpt>
					<trkpt lat="45.682660" lon="4.717590">
						<ele>316</ele>
						<time>2025-04-07T16:00:08Z</time>
					</trkpt>
					<trkpt lat="45.682390" lon="4.718020">
						<ele>318</ele>
						<time>2025-04-07T16:01:02Z</time>
					</trkpt>
					<trkpt lat="45.681950" lon="4.718760">
						<ele>323</ele>
						<time>2025-04-07T16:02:32Z</time>
					</trkpt>
					<trkpt lat="45.681540" lon="4.719470">
						<ele>328</ele>
						<time>2025-04-07T16:03:58Z</time>
					</trkpt>
					<trkpt lat="45.681120" lon="4.720130">
						<ele>330</ele>
						<time>2025-04-07T16:05:22Z</time>
					</trkpt>
					<trkpt lat="45.680910" lon="4.719890">
						<ele>331</ele>
						<time>2025-04-07T16:05:57Z</time>
					</trkpt>
					<trkpt lat="45.680590" lon="4.719520">
						<ele>331</ele>
						<time>2025-04-07T16:06:52Z</time>
					</trkpt>
					<trkpt lat="45.680330" lon="4.719150">
						<ele>330</ele>
						<time>2025-04-07T16:07:41Z</time>
					</trkpt>
					<trkpt lat="45.680130" lon="4.718880">
						<ele>329</ele>
						<time>2025-04-07T16:08:18Z</time>
					</trkpt>
					<trkpt lat="45.680130" lon="4.718890">
						<ele>329</ele>
						<time>2025-04-07T16:08:19Z</time>
					</trkpt>
					<trkpt lat="45.679910" lon="4.720130">
						<ele>330</ele>
						<time>2025-04-07T16:10:18Z</time>
					</trkpt>
					<trkpt lat="45.679780" lon="4.720790">
						<ele>329</ele>
						<time>2025-04-07T16:11:22Z</time>
					</trkpt>
					<trkpt lat="45.679780" lon="4.720800">
						<ele>329</ele>
						<time>2025-04-07T16:11:23Z</time>
					</trkpt>
					<trkpt lat="45.678240" lon="4.719550">
						<ele>324</ele>
						<time>2025-04-07T16:15:19Z</time>
					</trkpt>
					<trkpt lat="45.677920" lon="4.719330">
						<ele>323</ele>
						<time>2025-04-07T16:16:07Z</time>
					</trkpt>
					<trkpt lat="45.677900" lon="4.719380">
						<ele>323</ele>
						<time>2025-04-07T16:16:12Z</time>
					</trkpt>
					<trkpt lat="45.677920" lon="4.719330">
						<ele>323</ele>
						<time>2025-04-07T16:16:17Z</time>
					</trkpt>
					<trkpt lat="45.677650" lon="4.719220">
						<ele>322</ele>
						<time>2025-04-07T16:16:55Z</time>
					</trkpt>
					<trkpt lat="45.677370" lon="4.719160">
						<ele>322</ele>
						<time>2025-04-07T16:17:33Z</time>
					</trkpt>
					<trkpt lat="45.677200" lon="4.719070">
						<ele>322</ele>
						<time>2025-04-07T16:17:57Z</time>
					</trkpt>
					<trkpt lat="45.676730" lon="4.718650">
						<ele>323</ele>
						<time>2025-04-07T16:19:11Z</time>
					</trkpt>
					<trkpt lat="45.675900" lon="4.717920">
						<ele>322</ele>
						<time>2025-04-07T16:21:21Z</time>
					</trkpt>
					<trkpt lat="45.675870" lon="4.717890">
						<ele>322</ele>
						<time>2025-04-07T16:21:26Z</time>
					</trkpt>
					<trkpt lat="45.675540" lon="4.717460">
						<ele>322</ele>
						<time>2025-04-07T16:22:25Z</time>
					</trkpt>
					<trkpt lat="45.675390" lon="4.717370">
						<ele>322</ele>
						<time>2025-04-07T16:22:47Z</time>
					</trkpt>
					<trkpt lat="45.675240" lon="4.717390">
						<ele>321</ele>
						<time>2025-04-07T16:23:07Z</time>
					</trkpt>
					<trkpt lat="45.674660" lon="4.717620">
						<ele>320</ele>
						<time>2025-04-07T16:24:27Z</time>
					</trkpt>
					<trkpt lat="45.674600" lon="4.717650">
						<ele>319</ele>
						<time>2025-04-07T16:24:36Z</time>
					</trkpt>
					<trkpt lat="45.673440" lon="4.717620">
						<ele>318</ele>
						<time>2025-04-07T16:27:11Z</time>
					</trkpt>
					<trkpt lat="45.673070" lon="4.717650">
						<ele>317</ele>
						<time>2025-04-07T16:28:00Z</time>
					</trkpt>
					<trkpt lat="45.672820" lon="4.717650">
						<ele>317</ele>
						<time>2025-04-07T16:28:33Z</time>
					</trkpt>
					<trkpt lat="45.671960" lon="4.717610">
						<ele>317</ele>
						<time>2025-04-07T16:30:28Z</time>
					</trkpt>
					<trkpt lat="45.670880" lon="4.717570">
						<ele>317</ele>
						<time>2025-04-07T16:32:52Z</time>
					</trkpt>
					<trkpt lat="45.670890" lon="4.717550">
						<ele>317</ele>
						<time>2025-04-07T16:32:55Z</time>
					</trkpt>
					<trkpt lat="45.670880" lon="4.717570">
						<ele>317</ele>
						<time>2025-04-07T16:32:57Z</time>
					</trkpt>
					<trkpt lat="45.670860" lon="4.718140">
						<ele>315</ele>
						<time>2025-04-07T16:33:50Z</time>
					</trkpt>
					<trkpt lat="45.670830" lon="4.718900">
						<ele>312</ele>
						<time>2025-04-07T16:35:01Z</time>
					</trkpt>
					<trkpt lat="45.670790" lon="4.719340">
						<ele>311</ele>
						<time>2025-04-07T16:35:43Z</time>
					</trkpt>
					<trkpt lat="45.670720" lon="4.719950">
						<ele>311</ele>
						<time>2025-04-07T16:36:40Z</time>
					</trkpt>
					<trkpt lat="45.670670" lon="4.720490">
						<ele>312</ele>
						<time>2025-04-07T16:37:31Z</time>
					</trkpt>
					<trkpt lat="45.670600" lon="4.720950">
						<ele>313</ele>
						<time>2025-04-07T16:38:15Z</time>
					</trkpt>
					<trkpt lat="45.670550" lon="4.721140">
						<ele>313</ele>
						<time>2025-04-07T16:38:34Z</time>
					</trkpt>
					<trkpt lat="45.670570" lon="4.721150">
						<ele>313</ele>
						<time>2025-04-07T16:38:37Z</time>
					</trkpt>
					<trkpt lat="45.670550" lon="4.721140">
						<ele>313</ele>
						<time>2025-04-07T16:38:40Z</time>
					</trkpt>
					<trkpt lat="45.670280" lon="4.721400">
						<ele>313</ele>
						<time>2025-04-07T16:39:23Z</time>
					</trkpt>
					<trkpt lat="45.670190" lon="4.721560">
						<ele>313</ele>
						<time>2025-04-07T16:39:42Z</time>
					</trkpt>
					<trkpt lat="45.670160" lon="4.721720">
						<ele>312</ele>
						<time>2025-04-07T16:39:58Z</time>
					</trkpt>
					<trkpt lat="45.670130" lon="4.722250">
						<ele>310</ele>
						<time>2025-04-07T16:40:47Z</time>
					</trkpt>
					<trkpt lat="45.670120" lon="4.722650">
						<ele>309</ele>
						<time>2025-04-07T16:41:24Z</time>
					</trkpt>
					<trkpt lat="45.670120" lon="4.722930">
						<ele>308</ele>
						<time>2025-04-07T16:41:51Z</time>
					</trkpt>
					<trkpt lat="45.670100" lon="4.723260">
						<ele>307</ele>
						<time>2025-04-07T16:42:21Z</time>
					</trkpt>
					<trkpt lat="45.670070" lon="4.723400">
						<ele>307</ele>
						<time>2025-04-07T16:42:35Z</time>
					</trkpt>
					<trkpt lat="45.670080" lon="4.723420">
						<ele>307</ele>
						<time>2025-04-07T16:42:37Z</time>
					</trkpt>
					<trkpt lat="45.670150" lon="4.723840">
						<ele>305</ele>
						<time>2025-04-07T16:43:18Z</time>
					</trkpt>
					<trkpt lat="45.670210" lon="4.724000">
						<ele>304</ele>
						<time>2025-04-07T16:43:35Z</time>
					</trkpt>
					<trkpt lat="45.670390" lon="4.724200">
						<ele>305</ele>
						<time>2025-04-07T16:44:05Z</time>
					</trkpt>
					<trkpt lat="45.670410" lon="4.724230">
						<ele>305</ele>
						<time>2025-04-07T16:44:09Z</time>
					</trkpt>
					<trkpt lat="45.670440" lon="4.724250">
						<ele>305</ele>
						<time>2025-04-07T16:44:13Z</time>
					</trkpt>
					<trkpt lat="45.670410" lon="4.724230">
						<ele>305</ele>
						<time>2025-04-07T16:44:18Z</time>
					</trkpt>
					<trkpt lat="45.670420" lon="4.724610">
						<ele>304</ele>
						<time>2025-04-07T16:44:53Z</time>
					</trkpt>
					<trkpt lat="45.670450" lon="4.724820">
						<ele>303</ele>
						<time>2025-04-07T16:45:13Z</time>
					</trkpt>
					<trkpt lat="45.670600" lon="4.725510">
						<ele>301</ele>
						<time>2025-04-07T16:46:21Z</time>
					</trkpt>
					<trkpt lat="45.670600" lon="4.725840">
						<ele>299</ele>
						<time>2025-04-07T16:46:51Z</time>
					</trkpt>
					<trkpt lat="45.670530" lon="4.726110">
						<ele>297</ele>
						<time>2025-04-07T16:47:18Z</time>
					</trkpt>
					<trkpt lat="45.670420" lon="4.726360">
						<ele>294</ele>
						<time>2025-04-07T16:47:46Z</time>
					</trkpt>
					<trkpt lat="45.670280" lon="4.726570">
						<ele>292</ele>
						<time>2025-04-07T16:48:13Z</time>
					</trkpt>
					<trkpt lat="45.670160" lon="4.726730">
						<ele>289</ele>
						<time>2025-04-07T16:48:35Z</time>
					</trkpt>
					<trkpt lat="45.670130" lon="4.726800">
						<ele>289</ele>
						<time>2025-04-07T16:48:42Z</time>
					</trkpt>
					<trkpt lat="45.670080" lon="4.726920">
						<ele>287</ele>
						<time>2025-04-07T16:48:55Z</time>
					</trkpt>
					<trkpt lat="45.670010" lon="4.727010">
						<ele>286</ele>
						<time>2025-04-07T16:49:08Z</time>
					</trkpt>
					<trkpt lat="45.669750" lon="4.727260">
						<ele>286</ele>
						<time>2025-04-07T16:49:50Z</time>
					</trkpt>
					<trkpt lat="45.669400" lon="4.727280">
						<ele>288</ele>
						<time>2025-04-07T16:50:36Z</time>
					</trkpt>
					<trkpt lat="45.669380" lon="4.727300">
						<ele>288</ele>
						<time>2025-04-07T16:50:40Z</time>
					</trkpt>
					<trkpt lat="45.669240" lon="4.727550">
						<ele>288</ele>
						<time>2025-04-07T16:51:10Z</time>
					</trkpt>
					<trkpt lat="45.669200" lon="4.728410">
						<ele>290</ele>
						<time>2025-04-07T16:52:30Z</time>
					</trkpt>
					<trkpt lat="45.669200" lon="4.728530">
						<ele>290</ele>
						<time>2025-04-07T16:52:41Z</time>
					</trkpt>
					<trkpt lat="45.669090" lon="4.728770">
						<ele>291</ele>
						<time>2025-04-07T16:53:08Z</time>
					</trkpt>
					<trkpt lat="45.668890" lon="4.729160">
						<ele>294</ele>
						<time>2025-04-07T16:53:53Z</time>
					</trkpt>
					<trkpt lat="45.668550" lon="4.729730">
						<ele>296</ele>
						<time>2025-04-07T16:55:03Z</time>
					</trkpt>
					<trkpt lat="45.668170" lon="4.730390">
						<ele>298</ele>
						<time>2025-04-07T16:56:23Z</time>
					</trkpt>
					<trkpt lat="45.668110" lon="4.730490">
						<ele>299</ele>
						<time>2025-04-07T16:56:35Z</time>
					</trkpt>
					<trkpt lat="45.668060" lon="4.730560">
						<ele>299</ele>
						<time>2025-04-07T16:56:44Z</time>
					</trkpt>
					<trkpt lat="45.667970" lon="4.730760">
						<ele>300</ele>
						<time>2025-04-07T16:57:07Z</time>
					</trkpt>
					<trkpt lat="45.667430" lon="4.731910">
						<ele>302</ele>
						<time>2025-04-07T16:59:16Z</time>
					</trkpt>
					<trkpt lat="45.667140" lon="4.732340">
						<ele>304</ele>
						<time>2025-04-07T17:00:11Z</time>
					</trkpt>
					<trkpt lat="45.666820" lon="4.732770">
						<ele>305</ele>
						<time>2025-04-07T17:01:10Z</time>
					</trkpt>
					<trkpt lat="45.666830" lon="4.732770">
						<ele>305</ele>
						<time>2025-04-07T17:01:11Z</time>
					</trkpt>
					<trkpt lat="45.666820" lon="4.732770">
						<ele>305</ele>
						<time>2025-04-07T17:01:13Z</time>
					</trkpt>
					<trkpt lat="45.666690" lon="4.732860">
						<ele>305</ele>
						<time>2025-04-07T17:01:32Z</time>
					</trkpt>
					<trkpt lat="45.666570" lon="4.732900">
						<ele>305</ele>
						<time>2025-04-07T17:01:48Z</time>
					</trkpt>
					<trkpt lat="45.666140" lon="4.732910">
						<ele>305</ele>
						<time>2025-04-07T17:02:46Z</time>
					</trkpt>
					<trkpt lat="45.664880" lon="4.732890">
						<ele>303</ele>
						<time>2025-04-07T17:05:34Z</time>
					</trkpt>
					<trkpt lat="45.664640" lon="4.732870">
						<ele>303</ele>
						<time>2025-04-07T17:06:06Z</time>
					</trkpt>
					<trkpt lat="45.664390" lon="4.732770">
						<ele>304</ele>
						<time>2025-04-07T17:06:41Z</time>
					</trkpt>
					<trkpt lat="45.664310" lon="4.732700">
						<ele>304</ele>
						<time>2025-04-07T17:06:53Z</time>
					</trkpt>
					<trkpt lat="45.664290" lon="4.732690">
						<ele>304</ele>
						<time>2025-04-07T17:06:56Z</time>
					</trkpt>
					<trkpt lat="45.664310" lon="4.732700">
						<ele>304</ele>
						<time>2025-04-07T17:06:59Z</time>
					</trkpt>
					<trkpt lat="45.664460" lon="4.733090">
						<ele>303</ele>
						<time>2025-04-07T17:07:40Z</time>
					</trkpt>
					<trkpt lat="45.664650" lon="4.733400">
						<ele>302</ele>
						<time>2025-04-07T17:08:19Z</time>
					</trkpt>
					<trkpt lat="45.665130" lon="4.734000">
						<ele>299</ele>
						<time>2025-04-07T17:09:44Z</time>
					</trkpt>
					<trkpt lat="45.665310" lon="4.734270">
						<ele>299</ele>
						<time>2025-04-07T17:10:19Z</time>
					</trkpt>
					<trkpt lat="45.665760" lon="4.734940">
						<ele>300</ele>
						<time>2025-04-07T17:11:45Z</time>
					</trkpt>
					<trkpt lat="45.666090" lon="4.735480">
						<ele>300</ele>
						<time>2025-04-07T17:12:52Z</time>
					</trkpt>
					<trkpt lat="45.666310" lon="4.735920">
						<ele>300</ele>
						<time>2025-04-07T17:13:43Z</time>
					</trkpt>
					<trkpt lat="45.666880" lon="4.736610">
						<ele>301</ele>
						<time>2025-04-07T17:15:22Z</time>
					</trkpt>
					<trkpt lat="45.667240" lon="4.737070">
						<ele>300</ele>
						<time>2025-04-07T17:16:27Z</time>
					</trkpt>
					<trkpt lat="45.667760" lon="4.737900">
						<ele>299</ele>
						<time>2025-04-07T17:18:11Z</time>
					</trkpt>
					<trkpt lat="45.667990" lon="4.738310">
						<ele>300</ele>
						<time>2025-04-07T17:19:00Z</time>
					</trkpt>
					<trkpt lat="45.668060" lon="4.738470">
						<ele>300</ele>
						<time>2025-04-07T17:19:17Z</time>
					</trkpt>
					<trkpt lat="45.668060" lon="4.738470">
						<ele>300</ele>
						<time>2025-04-07T17:19:17Z</time>
					</trkpt>
					<trkpt lat="45.668060" lon="4.738470">
						<ele>300</ele>
						<time>2025-04-07T17:19:17Z</time>
					</trkpt>
					<trkpt lat="45.668030" lon="4.738750">
						<ele>299</ele>
						<time>2025-04-07T17:19:44Z</time>
					</trkpt>
					<trkpt lat="45.667880" lon="4.739420">
						<ele>296</ele>
						<time>2025-04-07T17:20:49Z</time>
					</trkpt>
					<trkpt lat="45.667870" lon="4.739620">
						<ele>294</ele>
						<time>2025-04-07T17:21:08Z</time>
					</trkpt>
					<trkpt lat="45.667960" lon="4.739800">
						<ele>293</ele>
						<time>2025-04-07T17:21:29Z</time>
					</trkpt>
					<trkpt lat="45.668330" lon="4.740160">
						<ele>290</ele>
						<time>2025-04-07T17:22:28Z</time>
					</trkpt>
					<trkpt lat="45.668390" lon="4.740350">
						<ele>288</ele>
						<time>2025-04-07T17:22:48Z</time>
					</trkpt>
					<trkpt lat="45.668390" lon="4.740990">
						<ele>281</ele>
						<time>2025-04-07T17:23:47Z</time>
					</trkpt>
					<trkpt lat="45.668310" lon="4.741800">
						<ele>273</ele>
						<time>2025-04-07T17:25:04Z</time>
					</trkpt>
					<trkpt lat="45.668320" lon="4.742120">
						<ele>271</ele>
						<time>2025-04-07T17:25:34Z</time>
					</trkpt>
					<trkpt lat="45.668370" lon="4.742300">
						<ele>270</ele>
						<time>2025-04-07T17:25:52Z</time>
					</trkpt>
					<trkpt lat="45.668390" lon="4.742300">
						<ele>270</ele>
						<time>2025-04-07T17:25:54Z</time>
					</trkpt>
					<trkpt lat="45.668370" lon="4.742300">
						<ele>270</ele>
						<time>2025-04-07T17:25:57Z</time>
					</trkpt>
					<trkpt lat="45.668400" lon="4.742730">
						<ele>269</ele>
						<time>2025-04-07T17:26:37Z</time>
					</trkpt>
					<trkpt lat="45.668340" lon="4.743070">
						<ele>269</ele>
						<time>2025-04-07T17:27:10Z</time>
					</trkpt>
					<trkpt lat="45.668300" lon="4.743400">
						<ele>268</ele>
						<time>2025-04-07T17:27:41Z</time>
					</trkpt>
					<trkpt lat="45.668280" lon="4.743830">
						<ele>268</ele>
						<time>2025-04-07T17:28:21Z</time>
					</trkpt>
					<trkpt lat="45.668270" lon="4.743920">
						<ele>268</ele>
						<time>2025-04-07T17:28:30Z</time>
					</trkpt>
					<trkpt lat="45.668130" lon="4.744390">
						<ele>266</ele>
						<time>2025-04-07T17:29:18Z</time>
					</trkpt>
					<trkpt lat="45.668100" lon="4.744530">
						<ele>265</ele>
						<time>2025-04-07T17:29:31Z</time>
					</trkpt>
					<trkpt lat="45.668070" lon="4.744780">
						<ele>264</ele>
						<time>2025-04-07T17:29:55Z</time>
					</trkpt>
					<trkpt lat="45.668110" lon="4.745080">
						<ele>263</ele>
						<time>2025-04-07T17:30:23Z</time>
					</trkpt>
					<trkpt lat="45.668120" lon="4.745300">
						<ele>261</ele>
						<time>2025-04-07T17:30:44Z</time>
					</trkpt>
					<trkpt lat="45.668100" lon="4.745590">
						<ele>258</ele>
						<time>2025-04-07T17:31:11Z</time>
					</trkpt>
					<trkpt lat="45.668050" lon="4.746020">
						<ele>253</ele>
						<time>2025-04-07T17:31:52Z</time>
					</trkpt>
					<trkpt lat="45.668010" lon="4.746310">
						<ele>249</ele>
						<time>2025-04-07T17:32:19Z</time>
					</trkpt>
					<trkpt lat="45.667960" lon="4.746600">
						<ele>245</ele>
						<time>2025-04-07T17:32:47Z</time>
					</trkpt>
					<trkpt lat="45.667890" lon="4.746910">
						<ele>240</ele>
						<time>2025-04-07T17:33:18Z</time>
					</trkpt>
					<trkpt lat="45.667830" lon="4.747050">
						<ele>238</ele>
						<time>2025-04-07T17:33:33Z</time>
					</trkpt>
					<trkpt lat="45.667710" lon="4.747130">
						<ele>237</ele>
						<time>2025-04-07T17:33:51Z</time>
					</trkpt>
					<trkpt lat="45.667700" lon="4.747130">
						<ele>237</ele>
						<time>2025-04-07T17:33:52Z</time>
					</trkpt>
					<trkpt lat="45.667710" lon="4.747190">
						<ele>236</ele>
						<time>2025-04-07T17:33:58Z</time>
					</trkpt>
					<trkpt lat="45.667810" lon="4.747190">
						<ele>236</ele>
						<time>2025-04-07T17:34:11Z</time>
					</trkpt>
					<trkpt lat="45.667890" lon="4.747160">
						<ele>236</ele>
						<time>2025-04-07T17:34:22Z</time>
					</trkpt>
					<trkpt lat="45.668060" lon="4.747030">
						<ele>239</ele>
						<time>2025-04-07T17:34:48Z</time>
					</trkpt>
					<trkpt lat="45.668130" lon="4.747010">
						<ele>239</ele>
						<time>2025-04-07T17:34:57Z</time>
					</trkpt>
					<trkpt lat="45.668160" lon="4.747030">
						<ele>239</ele>
						<time>2025-04-07T17:35:02Z</time>
					</trkpt>
					<trkpt lat="45.668170" lon="4.747110">
						<ele>237</ele>
						<time>2025-04-07T17:35:09Z</time>
					</trkpt>
					<trkpt lat="45.668170" lon="4.747150">
						<ele>237</ele>
						<time>2025-04-07T17:35:13Z</time>
					</trkpt>
					<trkpt lat="45.668130" lon="4.747480">
						<ele>231</ele>
						<time>2025-04-07T17:35:44Z</time>
					</trkpt>
					<trkpt lat="45.667980" lon="4.748540">
						<ele>220</ele>
						<time>2025-04-07T17:37:25Z</time>
					</trkpt>
					<trkpt lat="45.667980" lon="4.748590">
						<ele>220</ele>
						<time>2025-04-07T17:37:30Z</time>
					</trkpt>
					<trkpt lat="45.667900" lon="4.748700">
						<ele>219</ele>
						<time>2025-04-07T17:37:45Z</time>
					</trkpt>
					<trkpt lat="45.667620" lon="4.748930">
						<ele>217</ele>
						<time>2025-04-07T17:38:28Z</time>
					</trkpt>
					<trkpt lat="45.667570" lon="4.748960">
						<ele>216</ele>
						<time>2025-04-07T17:38:35Z</time>
					</trkpt>
					<trkpt lat="45.667630" lon="4.749270">
						<ele>214</ele>
						<time>2025-04-07T17:39:05Z</time>
					</trkpt>
					<trkpt lat="45.667750" lon="4.750060">
						<ele>211</ele>
						<time>2025-04-07T17:40:20Z</time>
					</trkpt>
					<trkpt lat="45.667760" lon="4.750120">
						<ele>211</ele>
						<time>2025-04-07T17:40:26Z</time>
					</trkpt>
					<trkpt lat="45.668040" lon="4.750490">
						<ele>211</ele>
						<time>2025-04-07T17:41:17Z</time>
					</trkpt>
					<trkpt lat="45.668310" lon="4.750840">
						<ele>210</ele>
						<time>2025-04-07T17:42:06Z</time>
					</trkpt>
					<trkpt lat="45.668710" lon="4.751480">
						<ele>209</ele>
						<time>2025-04-07T17:43:26Z</time>
					</trkpt>
					<trkpt lat="45.669030" lon="4.752000">
						<ele>209</ele>
						<time>2025-04-07T17:44:30Z</time>
					</trkpt>
					<trkpt lat="45.669420" lon="4.752570">
						<ele>209</ele>
						<time>2025-04-07T17:45:45Z</time>
					</trkpt>
					<trkpt lat="45.669430" lon="4.752970">
						<ele>209</ele>
						<time>2025-04-07T17:46:22Z</time>
					</trkpt>
					<trkpt lat="45.669420" lon="4.752970">
						<ele>209</ele>
						<time>2025-04-07T17:46:23Z</time>
					</trkpt>
					<trkpt lat="45.669430" lon="4.752970">
						<ele>209</ele>
						<time>2025-04-07T17:46:25Z</time>
					</trkpt>
					<trkpt lat="45.670370" lon="4.753110">
						<ele>208</ele>
						<time>2025-04-07T17:48:31Z</time>
					</trkpt>
					<trkpt lat="45.670440" lon="4.753120">
						<ele>208</ele>
						<time>2025-04-07T17:48:40Z</time>
					</trkpt>
					<trkpt lat="45.670640" lon="4.753160">
						<ele>207</ele>
						<time>2025-04-07T17:49:07Z</time>
					</trkpt>
					<trkpt lat="45.670910" lon="4.753200">
						<ele>207</ele>
						<time>2025-04-07T17:49:43Z</time>
					</trkpt>
					<trkpt lat="45.671160" lon="4.753240">
						<ele>207</ele>
						<time>2025-04-07T17:50:17Z</time>
					</trkpt>
					<trkpt lat="45.671600" lon="4.753320">
						<ele>208</ele>
						<time>2025-04-07T17:51:16Z</time>
					</trkpt>
					<trkpt lat="45.671820" lon="4.753340">
						<ele>208</ele>
						<time>2025-04-07T17:51:45Z</time>
					</trkpt>
					<trkpt lat="45.671820" lon="4.753340">
						<ele>208</ele>
						<time>2025-04-07T17:51:46Z</time>
					</trkpt>
					<trkpt lat="45.671820" lon="4.753340">
						<ele>208</ele>
						<time>2025-04-07T17:51:46Z</time>
					</trkpt>
					<trkpt lat="45.671810" lon="4.753430">
						<ele>208</ele>
						<time>2025-04-07T17:51:54Z</time>
					</trkpt>
					<trkpt lat="45.671630" lon="4.754440">
						<ele>206</ele>
						<time>2025-04-07T17:53:31Z</time>
					</trkpt>
					<trkpt lat="45.671490" lon="4.755110">
						<ele>206</ele>
						<time>2025-04-07T17:54:37Z</time>
					</trkpt>
					<trkpt lat="45.671460" lon="4.755230">
						<ele>206</ele>
						<time>2025-04-07T17:54:48Z</time>
					</trkpt>
					<trkpt lat="45.671440" lon="4.755270">
						<ele>206</ele>
						<time>2025-04-07T17:54:53Z</time>
					</trkpt>
					<trkpt lat="45.671460" lon="4.755230">
						<ele>206</ele>
						<time>2025-04-07T17:54:58Z</time>
					</trkpt>
					<trkpt lat="45.671490" lon="4.755110">
						<ele>206</ele>
						<time>2025-04-07T17:55:10Z</time>
					</trkpt>
					<trkpt lat="45.671540" lon="4.755130">
						<ele>206</ele>
						<time>2025-04-07T17:55:16Z</time>
					</trkpt>
					<trkpt lat="45.671520" lon="4.755250">
						<ele>206</ele>
						<time>2025-04-07T17:55:28Z</time>
					</trkpt>
					<trkpt lat="45.672020" lon="4.755420">
						<ele>207</ele>
						<time>2025-04-07T17:56:37Z</time>
					</trkpt>
					<trkpt lat="45.672010" lon="4.755520">
						<ele>207</ele>
						<time>2025-04-07T17:56:46Z</time>
					</trkpt>
					<trkpt lat="45.672240" lon="4.755690">
						<ele>207</ele>
						<time>2025-04-07T17:57:21Z</time>
					</trkpt>
					<trkpt lat="45.672370" lon="4.755760">
						<ele>207</ele>
						<time>2025-04-07T17:57:39Z</time>
					</trkpt>
					<trkpt lat="45.672520" lon="4.755780">
						<ele>207</ele>
						<time>2025-04-07T17:57:59Z</time>
					</trkpt>
					<trkpt lat="45.672600" lon="4.755780">
						<ele>207</ele>
						<time>2025-04-07T17:58:10Z</time>
					</trkpt>
					<trkpt lat="45.672860" lon="4.755770">
						<ele>207</ele>
						<time>2025-04-07T17:58:45Z</time>
					</trkpt>
					<trkpt lat="45.673030" lon="4.755720">
						<ele>207</ele>
						<time>2025-04-07T17:59:08Z</time>
					</trkpt>
					<trkpt lat="45.673190" lon="4.755660">
						<ele>207</ele>
						<time>2025-04-07T17:59:30Z</time>
					</trkpt>
					<trkpt lat="45.673490" lon="4.755570">
						<ele>208</ele>
						<time>2025-04-07T18:00:11Z</time>
					</trkpt>
					<trkpt lat="45.673730" lon="4.755520">
						<ele>208</ele>
						<time>2025-04-07T18:00:43Z</time>
					</trkpt>
					<trkpt lat="45.673930" lon="4.755440">
						<ele>208</ele>
						<time>2025-04-07T18:01:11Z</time>
					</trkpt>
					<trkpt lat="45.673920" lon="4.755370">
						<ele>208</ele>
						<time>2025-04-07T18:01:17Z</time>
					</trkpt>
					<trkpt lat="45.673920" lon="4.755340">
						<ele>208</ele>
						<time>2025-04-07T18:01:20Z</time>
					</trkpt>
					<trkpt lat="45.673910" lon="4.755300">
						<ele>208</ele>
						<time>2025-04-07T18:01:24Z</time>
					</trkpt>
					<trkpt lat="45.673990" lon="4.755270">
						<ele>208</ele>
						<time>2025-04-07T18:01:35Z</time>
					</trkpt>
					<trkpt lat="45.674010" lon="4.755410">
						<ele>208</ele>
						<time>2025-04-07T18:01:49Z</time>
					</trkpt>
					<trkpt lat="45.674090" lon="4.755790">
						<ele>209</ele>
						<time>2025-04-07T18:02:26Z</time>
					</trkpt>
					<trkpt lat="45.674120" lon="4.755780">
						<ele>209</ele>
						<time>2025-04-07T18:02:30Z</time>
					</trkpt>
					<trkpt lat="45.674130" lon="4.755750">
						<ele>209</ele>
						<time>2025-04-07T18:02:33Z</time>
					</trkpt>
					<trkpt lat="45.674110" lon="4.755730">
						<ele>209</ele>
						<time>2025-04-07T18:02:36Z</time>
					</trkpt>
					<trkpt lat="45.674110" lon="4.755690">
						<ele>209</ele>
						<time>2025-04-07T18:02:40Z</time>
					</trkpt>
					<trkpt lat="45.674090" lon="4.755620">
						<ele>209</ele>
						<time>2025-04-07T18:02:47Z</time>
					</trkpt>
					<trkpt lat="45.674100" lon="4.755570">
						<ele>209</ele>
						<time>2025-04-07T18:02:52Z</time>
					</trkpt>
					<trkpt lat="45.674540" lon="4.755230">
						<ele>207</ele>
						<time>2025-04-07T18:03:58Z</time>
					</trkpt>
					<trkpt lat="45.674610" lon="4.755130">
						<ele>207</ele>
						<time>2025-04-07T18:04:12Z</time>
					</trkpt>
					<trkpt lat="45.674770" lon="4.754900">
						<ele>206</ele>
						<time>2025-04-07T18:04:42Z</time>
					</trkpt>
					<trkpt lat="45.674800" lon="4.754940">
						<ele>206</ele>
						<time>2025-04-07T18:04:47Z</time>
					</trkpt>
					<trkpt lat="45.674800" lon="4.754860">
						<ele>206</ele>
						<time>2025-04-07T18:04:55Z</time>
					</trkpt>
					<trkpt lat="45.674810" lon="4.754610">
						<ele>206</ele>
						<time>2025-04-07T18:05:18Z</time>
					</trkpt>
					<trkpt lat="45.674970" lon="4.754380">
						<ele>207</ele>
						<time>2025-04-07T18:05:48Z</time>
					</trkpt>
					<trkpt lat="45.675230" lon="4.754090">
						<ele>207</ele>
						<time>2025-04-07T18:06:32Z</time>
					</trkpt>
					<trkpt lat="45.675250" lon="4.754030">
						<ele>207</ele>
						<time>2025-04-07T18:06:39Z</time>
					</trkpt>
					<trkpt lat="45.675250" lon="4.753970">
						<ele>207</ele>
						<time>2025-04-07T18:06:44Z</time>
					</trkpt>
					<trkpt lat="45.675400" lon="4.753910">
						<ele>207</ele>
						<time>2025-04-07T18:07:05Z</time>
					</trkpt>
					<trkpt lat="45.675660" lon="4.753760">
						<ele>208</ele>
						<time>2025-04-07T18:07:42Z</time>
					</trkpt>
					<trkpt lat="45.675740" lon="4.753680">
						<ele>208</ele>
						<time>2025-04-07T18:07:55Z</time>
					</trkpt>
					<trkpt lat="45.675750" lon="4.753660">
						<ele>208</ele>
						<time>2025-04-07T18:07:58Z</time>
					</trkpt>
					<trkpt lat="45.675830" lon="4.753470">
						<ele>208</ele>
						<time>2025-04-07T18:08:18Z</time>
					</trkpt>
					<trkpt lat="45.675970" lon="4.752980">
						<ele>208</ele>
						<time>2025-04-07T18:09:08Z</time>
					</trkpt>
					<trkpt lat="45.676110" lon="4.752770">
						<ele>208</ele>
						<time>2025-04-07T18:09:35Z</time>
					</trkpt>
					<trkpt lat="45.676310" lon="4.752620">
						<ele>208</ele>
						<time>2025-04-07T18:10:05Z</time>
					</trkpt>
					<trkpt lat="45.676770" lon="4.752480">
						<ele>208</ele>
						<time>2025-04-07T18:11:08Z</time>
					</trkpt>
					<trkpt lat="45.676870" lon="4.752470">
						<ele>208</ele>
						<time>2025-04-07T18:11:21Z</time>
					</trkpt>
					<trkpt lat="45.677000" lon="4.752470">
						<ele>208</ele>
						<time>2025-04-07T18:11:38Z</time>
					</trkpt>
					<trkpt lat="45.677330" lon="4.752400">
						<ele>209</ele>
						<time>2025-04-07T18:12:23Z</time>
					</trkpt>
					<trkpt lat="45.677620" lon="4.752230">
						<ele>209</ele>
						<time>2025-04-07T18:13:05Z</time>
					</trkpt>
					<trkpt lat="45.677800" lon="4.752090">
						<ele>208</ele>
						<time>2025-04-07T18:13:32Z</time>
					</trkpt>
					<trkpt lat="45.677860" lon="4.752040">
						<ele>208</ele>
						<time>2025-04-07T18:13:41Z</time>
					</trkpt>
					<trkpt lat="45.677840" lon="4.752010">
						<ele>208</ele>
						<time>2025-04-07T18:13:45Z</time>
					</trkpt>
					<trkpt lat="45.677790" lon="4.751890">
						<ele>208</ele>
						<time>2025-04-07T18:13:58Z</time>
					</trkpt>
					</trkseg>
				</trk>
			</gpx>